sensor_id;sensor_type;location;lat;lon;timestamp;temperature;humidity
5881;DHT22;2966;52.598;10.928;2023-02-22T00:00:18;7.70;99.90
5881;DHT22;2966;52.598;10.928;2023-02-22T00:02:48;7.70;99.90
5881;DHT22;2966;52.598;10.928;2023-02-22T00:05:18;7.60;99.90
5881;DHT22;2966;52.598;10.928;2023-02-22T00:07:50;7.60;99.90
5881;DHT22;2966;52.598;10.928;2023-02-22T00:10:17;7.60;99.90
5881;DHT22;2966;52.598;10.928;2023-02-22T00:12:45;7.60;99.90
5881;DHT22;2966;52.598;10.928;2023-02-22T00:15:15;7.60;99.90
5881;DHT22;2966;52.598;10.928;2023-02-22T00:17:42;7.60;99.90
5881;DHT22;2966;52.598;10.928;2023-02-22T00:20:10;7.60;99.90
5881;DHT22;2966;52.598;10.928;2023-02-22T00:22:39;7.50;99.90
5881;DHT22;2966;52.598;10.928;2023-02-22T00:25:09;7.50;99.90
5881;DHT22;2966;52.598;10.928;2023-02-22T00:27:36;7.40;99.90
5881;DHT22;2966;52.598;10.928;2023-02-22T00:30:04;7.40;99.90
5881;DHT22;2966;52.598;10.928;2023-02-22T00:32:31;7.40;99.90
5881;DHT22;2966;52.598;10.928;2023-02-22T00:34:58;7.40;99.90
5881;DHT22;2966;52.598;10.928;2023-02-22T00:37:24;7.40;99.90
5881;DHT22;2966;52.598;10.928;2023-02-22T00:39:51;7.40;99.90
5881;DHT22;2966;52.598;10.928;2023-02-22T00:42:19;7.40;99.90
5881;DHT22;2966;52.598;10.928;2023-02-22T00:44:46;7.40;99.90
5881;DHT22;2966;52.598;10.928;2023-02-22T00:47:15;7.40;99.90
5881;DHT22;2966;52.598;10.928;2023-02-22T00:49:45;7.50;99.90
5881;DHT22;2966;52.598;10.928;2023-02-22T00:52:12;7.60;99.90
5881;DHT22;2966;52.598;10.928;2023-02-22T00:54:39;7.60;99.90
5881;DHT22;2966;52.598;10.928;2023-02-22T00:57:05;7.60;99.90
5881;DHT22;2966;52.598;10.928;2023-02-22T00:59:37;7.60;99.90
5881;DHT22;2966;52.598;10.928;2023-02-22T01:02:03;7.60;99.90
5881;DHT22;2966;52.598;10.928;2023-02-22T01:04:30;7.60;99.90
5881;DHT22;2966;52.598;10.928;2023-02-22T01:06:57;7.60;99.90
5881;DHT22;2966;52.598;10.928;2023-02-22T01:09:25;7.60;99.90
5881;DHT22;2966;52.598;10.928;2023-02-22T01:11:52;7.60;99.90
5881;DHT22;2966;52.598;10.928;2023-02-22T01:14:21;7.60;99.90
5881;DHT22;2966;52.598;10.928;2023-02-22T01:16:49;7.60;99.90
5881;DHT22;2966;52.598;10.928;2023-02-22T01:19:16;7.60;99.90
5881;DHT22;2966;52.598;10.928;2023-02-22T01:21:43;7.60;99.90
5881;DHT22;2966;52.598;10.928;2023-02-22T01:24:09;7.60;99.90
5881;DHT22;2966;52.598;10.928;2023-02-22T01:26:40;7.60;99.90
5881;DHT22;2966;52.598;10.928;2023-02-22T01:29:07;7.60;99.90
5881;DHT22;2966;52.598;10.928;2023-02-22T01:31:34;7.60;99.90
5881;DHT22;2966;52.598;10.928;2023-02-22T01:34:02;7.60;99.90
5881;DHT22;2966;52.598;10.928;2023-02-22T01:36:29;7.60;99.90
5881;DHT22;2966;52.598;10.928;2023-02-22T01:38:55;7.60;99.90
5881;DHT22;2966;52.598;10.928;2023-02-22T01:41:22;7.60;99.90
5881;DHT22;2966;52.598;10.928;2023-02-22T01:43:49;7.60;99.90
5881;DHT22;2966;52.598;10.928;2023-02-22T01:46:20;7.60;99.90
5881;DHT22;2966;52.598;10.928;2023-02-22T01:48:50;7.60;99.90
5881;DHT22;2966;52.598;10.928;2023-02-22T01:51:23;7.60;99.90
5881;DHT22;2966;52.598;10.928;2023-02-22T01:53:52;7.60;99.90
5881;DHT22;2966;52.598;10.928;2023-02-22T01:56:24;7.60;99.90
5881;DHT22;2966;52.598;10.928;2023-02-22T01:58:56;7.60;99.90
5881;DHT22;2966;52.598;10.928;2023-02-22T02:01:24;7.60;99.90
5881;DHT22;2966;52.598;10.928;2023-02-22T02:03:55;7.60;99.90
5881;DHT22;2966;52.598;10.928;2023-02-22T02:06:25;7.60;99.90
5881;DHT22;2966;52.598;10.928;2023-02-22T02:08:57;7.60;99.90
5881;DHT22;2966;52.598;10.928;2023-02-22T02:11:25;7.60;99.90
5881;DHT22;2966;52.598;10.928;2023-02-22T02:13:54;7.60;99.90
5881;DHT22;2966;52.598;10.928;2023-02-22T02:16:21;7.60;99.90
5881;DHT22;2966;52.598;10.928;2023-02-22T02:18:49;7.60;99.90
5881;DHT22;2966;52.598;10.928;2023-02-22T02:21:44;7.60;99.90
5881;DHT22;2966;52.598;10.928;2023-02-22T02:24:48;7.60;99.90
5881;DHT22;2966;52.598;10.928;2023-02-22T02:27:21;7.60;99.90
5881;DHT22;2966;52.598;10.928;2023-02-22T02:32:55;7.60;99.90
5881;DHT22;2966;52.598;10.928;2023-02-22T02:35:30;7.60;99.90
5881;DHT22;2966;52.598;10.928;2023-02-22T02:38:06;7.60;99.90
5881;DHT22;2966;52.598;10.928;2023-02-22T02:40:39;7.50;99.90
5881;DHT22;2966;52.598;10.928;2023-02-22T02:43:14;7.60;99.90
5881;DHT22;2966;52.598;10.928;2023-02-22T02:45:46;7.50;99.90
5881;DHT22;2966;52.598;10.928;2023-02-22T02:48:16;7.60;99.90
5881;DHT22;2966;52.598;10.928;2023-02-22T02:50:47;7.50;99.90
5881;DHT22;2966;52.598;10.928;2023-02-22T02:53:18;7.50;99.90
5881;DHT22;2966;52.598;10.928;2023-02-22T02:55:46;7.50;99.90
5881;DHT22;2966;52.598;10.928;2023-02-22T02:58:17;7.50;99.90
5881;DHT22;2966;52.598;10.928;2023-02-22T03:00:45;7.50;99.90
5881;DHT22;2966;52.598;10.928;2023-02-22T03:03:44;7.50;99.90
5881;DHT22;2966;52.598;10.928;2023-02-22T03:06:37;7.50;99.90
5881;DHT22;2966;52.598;10.928;2023-02-22T03:09:15;7.50;99.90
5881;DHT22;2966;52.598;10.928;2023-02-22T03:11:52;7.50;99.90
5881;DHT22;2966;52.598;10.928;2023-02-22T03:14:31;7.50;99.90
5881;DHT22;2966;52.598;10.928;2023-02-22T03:17:01;7.50;99.90
5881;DHT22;2966;52.598;10.928;2023-02-22T03:19:44;7.50;99.90
5881;DHT22;2966;52.598;10.928;2023-02-22T03:22:15;7.50;99.90
5881;DHT22;2966;52.598;10.928;2023-02-22T03:24:47;7.60;99.90
5881;DHT22;2966;52.598;10.928;2023-02-22T03:27:23;7.60;99.90
5881;DHT22;2966;52.598;10.928;2023-02-22T03:29:55;7.60;99.90
5881;DHT22;2966;52.598;10.928;2023-02-22T03:32:27;7.60;99.90
5881;DHT22;2966;52.598;10.928;2023-02-22T03:34:58;7.60;99.90
5881;DHT22;2966;52.598;10.928;2023-02-22T03:37:28;7.60;99.90
5881;DHT22;2966;52.598;10.928;2023-02-22T03:39:58;7.50;99.90
5881;DHT22;2966;52.598;10.928;2023-02-22T03:42:29;7.60;99.90
5881;DHT22;2966;52.598;10.928;2023-02-22T03:44:59;7.60;99.90
5881;DHT22;2966;52.598;10.928;2023-02-22T03:47:29;7.60;99.90
5881;DHT22;2966;52.598;10.928;2023-02-22T03:50:03;7.60;99.90
5881;DHT22;2966;52.598;10.928;2023-02-22T03:52:31;7.60;99.90
5881;DHT22;2966;52.598;10.928;2023-02-22T03:54:59;7.60;99.90
5881;DHT22;2966;52.598;10.928;2023-02-22T03:57:28;7.60;99.90
5881;DHT22;2966;52.598;10.928;2023-02-22T03:59:57;7.60;99.90
5881;DHT22;2966;52.598;10.928;2023-02-22T04:02:24;7.60;99.90
5881;DHT22;2966;52.598;10.928;2023-02-22T04:04:50;7.50;99.90
5881;DHT22;2966;52.598;10.928;2023-02-22T04:07:18;7.60;99.90
5881;DHT22;2966;52.598;10.928;2023-02-22T04:09:45;7.60;99.90
5881;DHT22;2966;52.598;10.928;2023-02-22T04:12:12;7.60;99.90
5881;DHT22;2966;52.598;10.928;2023-02-22T04:14:38;7.60;99.90
5881;DHT22;2966;52.598;10.928;2023-02-22T04:17:05;7.50;99.90
5881;DHT22;2966;52.598;10.928;2023-02-22T04:19:32;7.60;99.90
5881;DHT22;2966;52.598;10.928;2023-02-22T04:22:01;7.60;99.90
5881;DHT22;2966;52.598;10.928;2023-02-22T04:24:29;7.50;99.90
5881;DHT22;2966;52.598;10.928;2023-02-22T04:26:56;7.60;99.90
5881;DHT22;2966;52.598;10.928;2023-02-22T04:29:25;7.60;99.90
5881;DHT22;2966;52.598;10.928;2023-02-22T04:31:52;7.60;99.90
5881;DHT22;2966;52.598;10.928;2023-02-22T04:34:22;7.60;99.90
5881;DHT22;2966;52.598;10.928;2023-02-22T04:36:48;7.60;99.90
5881;DHT22;2966;52.598;10.928;2023-02-22T04:39:18;7.50;99.90
5881;DHT22;2966;52.598;10.928;2023-02-22T04:41:46;7.60;99.90
5881;DHT22;2966;52.598;10.928;2023-02-22T04:44:13;7.50;99.90
5881;DHT22;2966;52.598;10.928;2023-02-22T04:46:42;7.50;99.90
5881;DHT22;2966;52.598;10.928;2023-02-22T04:49:11;7.50;99.90
5881;DHT22;2966;52.598;10.928;2023-02-22T04:51:37;7.50;99.90
5881;DHT22;2966;52.598;10.928;2023-02-22T04:54:05;7.50;99.90
5881;DHT22;2966;52.598;10.928;2023-02-22T04:56:35;7.50;99.90
5881;DHT22;2966;52.598;10.928;2023-02-22T04:59:03;7.50;99.90
5881;DHT22;2966;52.598;10.928;2023-02-22T05:01:30;7.50;99.90
5881;DHT22;2966;52.598;10.928;2023-02-22T05:03:58;7.50;99.90
5881;DHT22;2966;52.598;10.928;2023-02-22T05:06:27;7.50;99.90
5881;DHT22;2966;52.598;10.928;2023-02-22T05:08:54;7.50;99.90
5881;DHT22;2966;52.598;10.928;2023-02-22T05:11:21;7.50;99.90
5881;DHT22;2966;52.598;10.928;2023-02-22T05:13:51;7.50;99.90
5881;DHT22;2966;52.598;10.928;2023-02-22T05:16:19;7.50;99.90
5881;DHT22;2966;52.598;10.928;2023-02-22T05:18:46;7.50;99.90
5881;DHT22;2966;52.598;10.928;2023-02-22T05:21:16;7.50;99.90
5881;DHT22;2966;52.598;10.928;2023-02-22T05:23:43;7.50;99.90
5881;DHT22;2966;52.598;10.928;2023-02-22T05:26:10;7.50;99.90
5881;DHT22;2966;52.598;10.928;2023-02-22T05:28:36;7.50;99.90
5881;DHT22;2966;52.598;10.928;2023-02-22T05:31:03;7.50;99.90
5881;DHT22;2966;52.598;10.928;2023-02-22T05:33:35;7.50;99.90
5881;DHT22;2966;52.598;10.928;2023-02-22T05:36:04;7.50;99.90
5881;DHT22;2966;52.598;10.928;2023-02-22T05:38:32;7.50;99.90
5881;DHT22;2966;52.598;10.928;2023-02-22T05:40:58;7.50;99.90
5881;DHT22;2966;52.598;10.928;2023-02-22T05:43:28;7.50;99.90
5881;DHT22;2966;52.598;10.928;2023-02-22T05:45:54;7.40;99.90
5881;DHT22;2966;52.598;10.928;2023-02-22T05:48:21;7.40;99.90
5881;DHT22;2966;52.598;10.928;2023-02-22T05:50:49;7.40;99.90
5881;DHT22;2966;52.598;10.928;2023-02-22T05:53:21;7.40;99.90
5881;DHT22;2966;52.598;10.928;2023-02-22T05:55:49;7.40;99.90
5881;DHT22;2966;52.598;10.928;2023-02-22T05:58:15;7.40;99.90
5881;DHT22;2966;52.598;10.928;2023-02-22T06:00:45;7.40;99.90
5881;DHT22;2966;52.598;10.928;2023-02-22T06:03:12;7.40;99.90
5881;DHT22;2966;52.598;10.928;2023-02-22T06:05:39;7.40;99.90
5881;DHT22;2966;52.598;10.928;2023-02-22T06:08:09;7.40;99.90
5881;DHT22;2966;52.598;10.928;2023-02-22T06:10:36;7.50;99.90
5881;DHT22;2966;52.598;10.928;2023-02-22T06:13:04;7.50;99.90
5881;DHT22;2966;52.598;10.928;2023-02-22T06:15:31;7.50;99.90
5881;DHT22;2966;52.598;10.928;2023-02-22T06:17:58;7.50;99.90
5881;DHT22;2966;52.598;10.928;2023-02-22T06:20:29;7.50;99.90
5881;DHT22;2966;52.598;10.928;2023-02-22T06:22:58;7.50;99.90
5881;DHT22;2966;52.598;10.928;2023-02-22T06:25:27;7.50;99.90
5881;DHT22;2966;52.598;10.928;2023-02-22T06:27:55;7.40;99.90
5881;DHT22;2966;52.598;10.928;2023-02-22T06:30:23;7.40;99.90
5881;DHT22;2966;52.598;10.928;2023-02-22T06:32:52;7.40;99.90
5881;DHT22;2966;52.598;10.928;2023-02-22T06:35:19;7.40;99.90
5881;DHT22;2966;52.598;10.928;2023-02-22T06:37:46;7.40;99.90
5881;DHT22;2966;52.598;10.928;2023-02-22T06:40:13;7.30;99.90
5881;DHT22;2966;52.598;10.928;2023-02-22T06:42:41;7.30;99.90
5881;DHT22;2966;52.598;10.928;2023-02-22T06:45:09;7.30;99.90
5881;DHT22;2966;52.598;10.928;2023-02-22T06:47:42;7.30;99.90
5881;DHT22;2966;52.598;10.928;2023-02-22T06:50:18;7.20;99.90
5881;DHT22;2966;52.598;10.928;2023-02-22T06:52:45;7.30;99.90
5881;DHT22;2966;52.598;10.928;2023-02-22T06:55:16;7.30;99.90
5881;DHT22;2966;52.598;10.928;2023-02-22T06:57:44;7.30;99.90
5881;DHT22;2966;52.598;10.928;2023-02-22T07:00:13;7.30;99.90
5881;DHT22;2966;52.598;10.928;2023-02-22T07:02:41;7.30;99.90
5881;DHT22;2966;52.598;10.928;2023-02-22T07:05:09;7.40;99.90
5881;DHT22;2966;52.598;10.928;2023-02-22T07:07:39;7.40;99.90
5881;DHT22;2966;52.598;10.928;2023-02-22T07:10:06;7.50;99.90
5881;DHT22;2966;52.598;10.928;2023-02-22T07:12:33;7.50;99.90
5881;DHT22;2966;52.598;10.928;2023-02-22T07:15:01;7.50;99.90
5881;DHT22;2966;52.598;10.928;2023-02-22T07:17:28;7.50;99.90
5881;DHT22;2966;52.598;10.928;2023-02-22T07:19:55;7.50;99.90
5881;DHT22;2966;52.598;10.928;2023-02-22T07:22:21;7.60;99.90
5881;DHT22;2966;52.598;10.928;2023-02-22T07:24:48;7.60;99.90
5881;DHT22;2966;52.598;10.928;2023-02-22T07:27:15;7.60;99.90
5881;DHT22;2966;52.598;10.928;2023-02-22T07:29:42;7.60;99.90
5881;DHT22;2966;52.598;10.928;2023-02-22T07:32:10;7.70;99.90
5881;DHT22;2966;52.598;10.928;2023-02-22T07:34:36;7.70;99.90
5881;DHT22;2966;52.598;10.928;2023-02-22T07:37:03;7.70;99.90
5881;DHT22;2966;52.598;10.928;2023-02-22T07:39:30;7.70;99.90
5881;DHT22;2966;52.598;10.928;2023-02-22T07:41:57;7.70;99.90
5881;DHT22;2966;52.598;10.928;2023-02-22T07:44:24;7.80;99.90
5881;DHT22;2966;52.598;10.928;2023-02-22T07:46:51;7.80;99.90
5881;DHT22;2966;52.598;10.928;2023-02-22T07:49:19;7.80;99.90
5881;DHT22;2966;52.598;10.928;2023-02-22T07:51:48;7.90;99.90
5881;DHT22;2966;52.598;10.928;2023-02-22T07:54:15;7.90;99.90
5881;DHT22;2966;52.598;10.928;2023-02-22T07:56:45;8.00;99.90
5881;DHT22;2966;52.598;10.928;2023-02-22T07:59:12;8.10;99.90
5881;DHT22;2966;52.598;10.928;2023-02-22T08:01:39;8.10;99.90
5881;DHT22;2966;52.598;10.928;2023-02-22T08:04:09;8.10;99.90
5881;DHT22;2966;52.598;10.928;2023-02-22T08:06:37;8.20;99.90
5881;DHT22;2966;52.598;10.928;2023-02-22T08:09:04;8.20;99.90
5881;DHT22;2966;52.598;10.928;2023-02-22T08:11:32;8.20;99.90
5881;DHT22;2966;52.598;10.928;2023-02-22T08:13:58;8.30;99.90
5881;DHT22;2966;52.598;10.928;2023-02-22T08:16:25;8.20;99.90
5881;DHT22;2966;52.598;10.928;2023-02-22T08:18:52;8.30;99.90
5881;DHT22;2966;52.598;10.928;2023-02-22T08:21:18;8.40;99.90
5881;DHT22;2966;52.598;10.928;2023-02-22T08:23:50;8.40;99.90
5881;DHT22;2966;52.598;10.928;2023-02-22T08:26:16;8.50;99.90
5881;DHT22;2966;52.598;10.928;2023-02-22T08:28:45;8.60;99.90
5881;DHT22;2966;52.598;10.928;2023-02-22T08:31:11;8.60;99.90
5881;DHT22;2966;52.598;10.928;2023-02-22T08:33:38;8.70;99.90
5881;DHT22;2966;52.598;10.928;2023-02-22T08:36:06;8.70;99.90
5881;DHT22;2966;52.598;10.928;2023-02-22T08:38:33;8.70;99.90
5881;DHT22;2966;52.598;10.928;2023-02-22T08:41:01;8.80;99.90
5881;DHT22;2966;52.598;10.928;2023-02-22T08:43:28;8.80;99.90
5881;DHT22;2966;52.598;10.928;2023-02-22T08:45:54;8.80;99.90
5881;DHT22;2966;52.598;10.928;2023-02-22T08:48:21;8.70;99.90
5881;DHT22;2966;52.598;10.928;2023-02-22T08:50:48;8.70;99.90
5881;DHT22;2966;52.598;10.928;2023-02-22T08:53:16;8.60;99.90
5881;DHT22;2966;52.598;10.928;2023-02-22T08:55:43;8.60;99.90
5881;DHT22;2966;52.598;10.928;2023-02-22T08:58:13;8.70;99.90
5881;DHT22;2966;52.598;10.928;2023-02-22T09:00:41;8.70;99.90
5881;DHT22;2966;52.598;10.928;2023-02-22T09:03:10;8.80;99.90
5881;DHT22;2966;52.598;10.928;2023-02-22T09:05:38;8.90;99.90
5881;DHT22;2966;52.598;10.928;2023-02-22T09:08:05;8.90;99.90
5881;DHT22;2966;52.598;10.928;2023-02-22T09:10:33;8.90;99.90
5881;DHT22;2966;52.598;10.928;2023-02-22T09:13:00;9.00;99.90
5881;DHT22;2966;52.598;10.928;2023-02-22T09:15:30;9.10;99.90
5881;DHT22;2966;52.598;10.928;2023-02-22T09:17:58;9.20;99.90
5881;DHT22;2966;52.598;10.928;2023-02-22T09:20:25;9.20;99.90
5881;DHT22;2966;52.598;10.928;2023-02-22T09:22:52;9.30;99.90
5881;DHT22;2966;52.598;10.928;2023-02-22T09:25:20;9.30;99.90
5881;DHT22;2966;52.598;10.928;2023-02-22T09:27:48;9.40;99.90
5881;DHT22;2966;52.598;10.928;2023-02-22T09:30:19;9.40;99.90
5881;DHT22;2966;52.598;10.928;2023-02-22T09:32:50;9.50;99.90
5881;DHT22;2966;52.598;10.928;2023-02-22T09:35:17;9.50;99.90
5881;DHT22;2966;52.598;10.928;2023-02-22T09:37:44;9.60;99.90
5881;DHT22;2966;52.598;10.928;2023-02-22T09:40:15;9.60;99.90
5881;DHT22;2966;52.598;10.928;2023-02-22T09:42:55;9.60;99.90
5881;DHT22;2966;52.598;10.928;2023-02-22T09:45:31;9.60;99.90
5881;DHT22;2966;52.598;10.928;2023-02-22T09:48:05;9.70;99.90
5881;DHT22;2966;52.598;10.928;2023-02-22T09:50:36;9.80;99.90
5881;DHT22;2966;52.598;10.928;2023-02-22T09:53:04;9.90;99.90
5881;DHT22;2966;52.598;10.928;2023-02-22T09:55:41;10.00;99.90
5881;DHT22;2966;52.598;10.928;2023-02-22T09:58:13;10.00;99.90
5881;DHT22;2966;52.598;10.928;2023-02-22T10:00:45;10.00;99.90
5881;DHT22;2966;52.598;10.928;2023-02-22T10:03:22;10.10;99.90
5881;DHT22;2966;52.598;10.928;2023-02-22T10:05:53;10.10;99.90
5881;DHT22;2966;52.598;10.928;2023-02-22T10:08:27;10.00;99.90
5881;DHT22;2966;52.598;10.928;2023-02-22T10:11:03;10.10;99.90
5881;DHT22;2966;52.598;10.928;2023-02-22T10:13:36;10.10;99.90
5881;DHT22;2966;52.598;10.928;2023-02-22T10:16:11;10.20;99.90
5881;DHT22;2966;52.598;10.928;2023-02-22T10:18:57;10.40;99.90
5881;DHT22;2966;52.598;10.928;2023-02-22T10:21:45;10.50;99.90
5881;DHT22;2966;52.598;10.928;2023-02-22T10:24:25;10.50;99.90
5881;DHT22;2966;52.598;10.928;2023-02-22T10:27:01;10.50;99.90
5881;DHT22;2966;52.598;10.928;2023-02-22T10:29:36;10.50;99.90
5881;DHT22;2966;52.598;10.928;2023-02-22T10:32:10;10.50;99.90
5881;DHT22;2966;52.598;10.928;2023-02-22T10:34:44;10.40;99.90
5881;DHT22;2966;52.598;10.928;2023-02-22T10:37:21;10.50;99.90
5881;DHT22;2966;52.598;10.928;2023-02-22T10:39:50;10.50;99.90
5881;DHT22;2966;52.598;10.928;2023-02-22T10:42:21;10.60;99.90
5881;DHT22;2966;52.598;10.928;2023-02-22T10:44:50;10.60;99.90
5881;DHT22;2966;52.598;10.928;2023-02-22T10:47:17;10.60;99.90
5881;DHT22;2966;52.598;10.928;2023-02-22T10:49:48;10.70;99.90
5881;DHT22;2966;52.598;10.928;2023-02-22T10:52:23;10.70;99.90
5881;DHT22;2966;52.598;10.928;2023-02-22T10:54:51;10.80;99.90
5881;DHT22;2966;52.598;10.928;2023-02-22T10:57:21;10.90;99.90
5881;DHT22;2966;52.598;10.928;2023-02-22T10:59:50;11.00;99.90
5881;DHT22;2966;52.598;10.928;2023-02-22T11:02:19;11.10;99.90
5881;DHT22;2966;52.598;10.928;2023-02-22T11:04:49;11.20;99.90
5881;DHT22;2966;52.598;10.928;2023-02-22T11:07:22;11.20;99.90
5881;DHT22;2966;52.598;10.928;2023-02-22T11:09:51;11.10;99.90
5881;DHT22;2966;52.598;10.928;2023-02-22T11:12:24;11.00;99.90
5881;DHT22;2966;52.598;10.928;2023-02-22T11:14:51;11.00;99.90
5881;DHT22;2966;52.598;10.928;2023-02-22T11:17:30;11.10;99.90
5881;DHT22;2966;52.598;10.928;2023-02-22T11:19:58;11.10;99.90
5881;DHT22;2966;52.598;10.928;2023-02-22T11:22:27;11.10;99.90
5881;DHT22;2966;52.598;10.928;2023-02-22T11:24:58;11.20;99.90
5881;DHT22;2966;52.598;10.928;2023-02-22T11:27:31;11.10;99.90
5881;DHT22;2966;52.598;10.928;2023-02-22T11:30:10;11.10;99.90
5881;DHT22;2966;52.598;10.928;2023-02-22T11:32:43;11.10;99.90
5881;DHT22;2966;52.598;10.928;2023-02-22T11:38:17;11.20;99.90
5881;DHT22;2966;52.598;10.928;2023-02-22T11:40:46;11.30;99.90
5881;DHT22;2966;52.598;10.928;2023-02-22T11:43:29;11.40;99.90
5881;DHT22;2966;52.598;10.928;2023-02-22T11:45:58;11.50;99.90
5881;DHT22;2966;52.598;10.928;2023-02-22T11:48:28;11.60;99.90
5881;DHT22;2966;52.598;10.928;2023-02-22T11:51:11;11.60;99.90
5881;DHT22;2966;52.598;10.928;2023-02-22T11:54:14;11.70;99.90
5881;DHT22;2966;52.598;10.928;2023-02-22T11:56:51;11.80;99.90
5881;DHT22;2966;52.598;10.928;2023-02-22T11:59:28;11.70;99.90
5881;DHT22;2966;52.598;10.928;2023-02-22T12:01:59;11.70;99.90
5881;DHT22;2966;52.598;10.928;2023-02-22T12:04:50;11.70;99.90
5881;DHT22;2966;52.598;10.928;2023-02-22T12:07:33;11.70;99.90
5881;DHT22;2966;52.598;10.928;2023-02-22T12:10:12;11.80;99.90
5881;DHT22;2966;52.598;10.928;2023-02-22T12:12:52;11.90;99.90
5881;DHT22;2966;52.598;10.928;2023-02-22T12:15:28;12.00;99.90
5881;DHT22;2966;52.598;10.928;2023-02-22T12:18:01;12.00;99.90
5881;DHT22;2966;52.598;10.928;2023-02-22T12:20:35;11.90;99.90
5881;DHT22;2966;52.598;10.928;2023-02-22T12:23:11;11.90;99.90
5881;DHT22;2966;52.598;10.928;2023-02-22T12:25:52;11.90;99.90
5881;DHT22;2966;52.598;10.928;2023-02-22T12:28:26;11.90;99.90
5881;DHT22;2966;52.598;10.928;2023-02-22T12:31:03;12.00;99.90
5881;DHT22;2966;52.598;10.928;2023-02-22T12:33:39;12.00;99.90
5881;DHT22;2966;52.598;10.928;2023-02-22T12:36:11;11.90;99.90
5881;DHT22;2966;52.598;10.928;2023-02-22T12:38:43;11.90;99.90
5881;DHT22;2966;52.598;10.928;2023-02-22T12:41:19;11.90;99.90
5881;DHT22;2966;52.598;10.928;2023-02-22T12:43:51;11.90;99.90
5881;DHT22;2966;52.598;10.928;2023-02-22T12:46:22;11.90;99.90
5881;DHT22;2966;52.598;10.928;2023-02-22T12:48:53;11.90;99.90
5881;DHT22;2966;52.598;10.928;2023-02-22T12:51:27;12.00;99.90
5881;DHT22;2966;52.598;10.928;2023-02-22T12:54:00;12.00;99.90
5881;DHT22;2966;52.598;10.928;2023-02-22T12:56:37;12.00;99.90
5881;DHT22;2966;52.598;10.928;2023-02-22T12:59:11;12.10;99.90
5881;DHT22;2966;52.598;10.928;2023-02-22T13:01:44;12.10;99.90
5881;DHT22;2966;52.598;10.928;2023-02-22T13:04:12;12.10;99.90
5881;DHT22;2966;52.598;10.928;2023-02-22T13:06:48;12.10;99.90
5881;DHT22;2966;52.598;10.928;2023-02-22T13:12:27;12.10;99.90
5881;DHT22;2966;52.598;10.928;2023-02-22T13:15:01;12.20;99.90
5881;DHT22;2966;52.598;10.928;2023-02-22T13:17:38;12.20;99.90
5881;DHT22;2966;52.598;10.928;2023-02-22T13:20:11;12.20;99.90
5881;DHT22;2966;52.598;10.928;2023-02-22T13:22:46;12.20;99.90
5881;DHT22;2966;52.598;10.928;2023-02-22T13:25:16;12.20;99.90
5881;DHT22;2966;52.598;10.928;2023-02-22T13:27:49;12.10;99.90
5881;DHT22;2966;52.598;10.928;2023-02-22T13:30:21;12.10;99.90
5881;DHT22;2966;52.598;10.928;2023-02-22T13:33:10;12.10;99.90
5881;DHT22;2966;52.598;10.928;2023-02-22T13:35:50;12.20;99.90
5881;DHT22;2966;52.598;10.928;2023-02-22T13:41:59;12.20;99.90
5881;DHT22;2966;52.598;10.928;2023-02-22T13:44:59;12.20;99.90
5881;DHT22;2966;52.598;10.928;2023-02-22T13:47:50;12.20;99.90
5881;DHT22;2966;52.598;10.928;2023-02-22T13:50:42;12.20;99.90
5881;DHT22;2966;52.598;10.928;2023-02-22T13:53:17;12.20;99.90
5881;DHT22;2966;52.598;10.928;2023-02-22T13:55:51;12.10;99.90
5881;DHT22;2966;52.598;10.928;2023-02-22T13:58:19;12.20;99.90
5881;DHT22;2966;52.598;10.928;2023-02-22T14:00:50;12.20;99.90
5881;DHT22;2966;52.598;10.928;2023-02-22T14:03:29;12.10;99.90
5881;DHT22;2966;52.598;10.928;2023-02-22T14:06:01;12.20;99.90
5881;DHT22;2966;52.598;10.928;2023-02-22T14:08:44;12.20;99.90
5881;DHT22;2966;52.598;10.928;2023-02-22T14:14:21;12.10;99.90
5881;DHT22;2966;52.598;10.928;2023-02-22T14:17:24;12.20;99.90
5881;DHT22;2966;52.598;10.928;2023-02-22T14:20:02;12.20;99.90
5881;DHT22;2966;52.598;10.928;2023-02-22T14:22:30;12.20;99.90
5881;DHT22;2966;52.598;10.928;2023-02-22T14:24:57;12.20;99.90
5881;DHT22;2966;52.598;10.928;2023-02-22T14:27:24;12.10;99.90
5881;DHT22;2966;52.598;10.928;2023-02-22T14:30:04;12.10;99.90
5881;DHT22;2966;52.598;10.928;2023-02-22T14:32:33;12.10;99.90
5881;DHT22;2966;52.598;10.928;2023-02-22T14:35:04;12.10;99.90
5881;DHT22;2966;52.598;10.928;2023-02-22T14:37:35;12.10;99.90
5881;DHT22;2966;52.598;10.928;2023-02-22T14:40:05;12.10;99.90
5881;DHT22;2966;52.598;10.928;2023-02-22T14:42:43;12.10;99.90
5881;DHT22;2966;52.598;10.928;2023-02-22T14:45:19;12.00;99.90
5881;DHT22;2966;52.598;10.928;2023-02-22T14:48:05;12.00;99.90
5881;DHT22;2966;52.598;10.928;2023-02-22T14:50:42;12.00;99.90
5881;DHT22;2966;52.598;10.928;2023-02-22T14:53:20;12.00;99.90
5881;DHT22;2966;52.598;10.928;2023-02-22T14:55:52;11.90;99.90
5881;DHT22;2966;52.598;10.928;2023-02-22T14:58:24;11.90;99.90
5881;DHT22;2966;52.598;10.928;2023-02-22T15:00:53;11.80;99.90
5881;DHT22;2966;52.598;10.928;2023-02-22T15:03:28;11.80;99.90
5881;DHT22;2966;52.598;10.928;2023-02-22T15:06:03;11.70;99.90
5881;DHT22;2966;52.598;10.928;2023-02-22T15:08:30;11.70;99.90
5881;DHT22;2966;52.598;10.928;2023-02-22T15:10:59;11.70;99.90
5881;DHT22;2966;52.598;10.928;2023-02-22T15:13:29;11.60;99.90
5881;DHT22;2966;52.598;10.928;2023-02-22T15:16:00;11.60;99.90
5881;DHT22;2966;52.598;10.928;2023-02-22T15:18:32;11.50;99.90
5881;DHT22;2966;52.598;10.928;2023-02-22T15:21:05;11.50;99.90
5881;DHT22;2966;52.598;10.928;2023-02-22T15:23:40;11.40;99.90
5881;DHT22;2966;52.598;10.928;2023-02-22T15:26:15;11.40;99.90
5881;DHT22;2966;52.598;10.928;2023-02-22T15:28:43;11.30;99.90
5881;DHT22;2966;52.598;10.928;2023-02-22T15:31:16;11.30;99.90
5881;DHT22;2966;52.598;10.928;2023-02-22T15:33:44;11.30;99.90
5881;DHT22;2966;52.598;10.928;2023-02-22T15:36:14;11.20;99.90
5881;DHT22;2966;52.598;10.928;2023-02-22T15:38:46;11.20;99.90
5881;DHT22;2966;52.598;10.928;2023-02-22T15:41:20;11.20;99.90
5881;DHT22;2966;52.598;10.928;2023-02-22T15:44:04;11.10;99.90
5881;DHT22;2966;52.598;10.928;2023-02-22T15:46:31;11.10;99.90
5881;DHT22;2966;52.598;10.928;2023-02-22T15:49:17;11.10;99.90
5881;DHT22;2966;52.598;10.928;2023-02-22T15:51:45;11.00;99.90
5881;DHT22;2966;52.598;10.928;2023-02-22T15:54:16;11.00;99.90
5881;DHT22;2966;52.598;10.928;2023-02-22T15:56:48;10.90;99.90
5881;DHT22;2966;52.598;10.928;2023-02-22T15:59:17;10.90;99.90
5881;DHT22;2966;52.598;10.928;2023-02-22T16:01:46;10.80;99.90
5881;DHT22;2966;52.598;10.928;2023-02-22T16:04:19;10.80;99.90
5881;DHT22;2966;52.598;10.928;2023-02-22T16:06:47;10.70;99.90
5881;DHT22;2966;52.598;10.928;2023-02-22T16:09:17;10.70;99.90
5881;DHT22;2966;52.598;10.928;2023-02-22T16:11:48;10.60;99.90
5881;DHT22;2966;52.598;10.928;2023-02-22T16:14:26;10.50;99.90
5881;DHT22;2966;52.598;10.928;2023-02-22T16:17:22;10.50;99.90
5881;DHT22;2966;52.598;10.928;2023-02-22T16:19:59;10.40;99.90
5881;DHT22;2966;52.598;10.928;2023-02-22T16:22:29;10.40;99.90
5881;DHT22;2966;52.598;10.928;2023-02-22T16:25:22;10.30;99.90
5881;DHT22;2966;52.598;10.928;2023-02-22T16:27:52;10.30;99.90
5881;DHT22;2966;52.598;10.928;2023-02-22T16:30:26;10.20;99.90
5881;DHT22;2966;52.598;10.928;2023-02-22T16:32:55;10.20;99.90
5881;DHT22;2966;52.598;10.928;2023-02-22T16:35:26;10.10;99.90